createdAt,value
2023-03-17T00:00:38.348Z,96.40
2023-03-17T00:03:06.692Z,96.60
2023-03-17T00:05:36.068Z,96.50
2023-03-17T00:08:18.030Z,96.60
2023-03-17T00:10:47.454Z,96.90
2023-03-17T00:13:18.825Z,96.80
2023-03-17T00:16:00.205Z,96.90
2023-03-17T00:18:27.895Z,96.80
2023-03-17T00:20:54.672Z,97.00
2023-03-17T00:23:23.135Z,97.00
2023-03-17T00:25:50.122Z,97.00
2023-03-17T00:28:27.540Z,97.00
2023-03-17T00:30:59.468Z,97.20
2023-03-17T00:33:28.388Z,97.20
2023-03-17T00:35:57.067Z,97.40
2023-03-17T00:38:27.813Z,97.50
2023-03-17T00:40:56.575Z,97.50
2023-03-17T00:43:26.180Z,97.60
2023-03-17T00:45:52.873Z,97.80
2023-03-17T00:48:24.136Z,97.90
2023-03-17T00:50:51.041Z,98.10
2023-03-17T00:53:20.534Z,98.10
2023-03-17T00:55:48.082Z,98.00
2023-03-17T00:58:26.925Z,98.10
2023-03-17T01:00:56.293Z,98.20
2023-03-17T01:03:26.122Z,98.10
2023-03-17T01:05:54.452Z,98.10
2023-03-17T01:08:22.628Z,97.90
2023-03-17T01:10:49.717Z,98.10
2023-03-17T01:13:18.485Z,98.10
2023-03-17T01:15:47.072Z,98.10
2023-03-17T01:18:15.963Z,98.10
2023-03-17T01:20:45.467Z,98.10
2023-03-17T01:23:12.590Z,98.30
2023-03-17T01:25:44.497Z,98.40
2023-03-17T01:28:18.519Z,98.40
2023-03-17T01:30:52.734Z,98.40
2023-03-17T01:33:22.207Z,98.50
2023-03-17T01:35:51.454Z,98.50
2023-03-17T01:38:18.761Z,98.50
2023-03-17T01:40:49.683Z,98.60
2023-03-17T01:43:30.704Z,98.40
2023-03-17T01:46:16.213Z,98.50
2023-03-17T01:49:00.981Z,98.50
2023-03-17T01:51:41.078Z,98.70
2023-03-17T01:54:27.001Z,98.60
2023-03-17T01:56:58.420Z,98.60
2023-03-17T01:59:31.567Z,98.50
2023-03-17T02:02:05.001Z,98.60
2023-03-17T02:04:34.038Z,98.60
2023-03-17T02:07:02.568Z,98.60
2023-03-17T02:09:29.369Z,98.80
2023-03-17T02:11:57.541Z,98.70
2023-03-17T02:14:24.352Z,98.70
2023-03-17T02:16:53.860Z,98.60
2023-03-17T02:19:22.688Z,98.60
2023-03-17T02:22:00.165Z,98.60
2023-03-17T02:24:33.497Z,98.70
2023-03-17T02:27:26.305Z,98.60
2023-03-17T02:29:53.125Z,98.70
2023-03-17T02:32:22.602Z,98.70
2023-03-17T02:34:54.112Z,98.80
2023-03-17T02:37:21.437Z,98.80
2023-03-17T02:39:50.556Z,98.80
2023-03-17T02:42:21.991Z,99.00
2023-03-17T02:44:48.828Z,99.10
2023-03-17T02:47:17.808Z,99.00
2023-03-17T02:49:45.230Z,99.00
2023-03-17T02:52:16.553Z,99.10
2023-03-17T02:54:47.911Z,99.30
2023-03-17T02:57:17.358Z,99.50
2023-03-17T02:59:48.707Z,99.60
2023-03-17T03:02:16.762Z,99.70
2023-03-17T03:04:43.978Z,99.70
2023-03-17T03:07:13.157Z,99.70
2023-03-17T03:09:39.951Z,99.70
2023-03-17T03:12:09.855Z,99.80
2023-03-17T03:14:36.699Z,99.80
2023-03-17T03:17:09.017Z,99.90
2023-03-17T03:19:38.177Z,99.90
2023-03-17T03:22:04.802Z,99.90
2023-03-17T03:24:32.166Z,99.90
2023-03-17T03:27:01.566Z,99.90
2023-03-17T03:29:35.389Z,99.90
2023-03-17T03:32:04.698Z,99.90
2023-03-17T03:34:33.789Z,99.90
2023-03-17T03:37:00.513Z,99.90
2023-03-17T03:39:27.172Z,99.90
2023-03-17T03:41:57.267Z,99.80
2023-03-17T03:44:26.862Z,99.70
2023-03-17T03:46:53.557Z,99.70
2023-03-17T03:49:20.994Z,99.60
2023-03-17T03:51:47.697Z,99.70
2023-03-17T03:54:14.462Z,99.80
2023-03-17T03:56:41.116Z,99.90
2023-03-17T03:59:10.307Z,99.90
2023-03-17T04:01:39.996Z,99.90
2023-03-17T04:04:11.555Z,99.90
2023-03-17T04:06:40.453Z,99.90
2023-03-17T04:09:07.493Z,99.90
2023-03-17T04:11:34.193Z,99.90
2023-03-17T04:14:00.993Z,99.90
2023-03-17T04:16:30.044Z,99.90
2023-03-17T04:18:57.432Z,99.90
2023-03-17T04:21:24.089Z,99.90
2023-03-17T04:23:50.796Z,99.90
2023-03-17T04:26:23.060Z,99.90
2023-03-17T04:28:49.753Z,99.90
2023-03-17T04:31:16.519Z,99.80
2023-03-17T04:33:45.292Z,99.90
2023-03-17T04:36:23.087Z,99.80
2023-03-17T04:38:50.346Z,99.80
2023-03-17T04:41:17.301Z,99.60
2023-03-17T04:43:46.183Z,99.70
2023-03-17T04:46:17.461Z,99.70
2023-03-17T04:48:44.089Z,99.80
2023-03-17T04:51:11.941Z,99.90
2023-03-17T04:53:38.901Z,99.90
2023-03-17T04:56:08.497Z,99.90
2023-03-17T04:58:37.266Z,99.90
2023-03-17T05:01:07.134Z,99.90
2023-03-17T05:03:34.518Z,99.90
2023-03-17T05:06:02.710Z,99.80
2023-03-17T05:08:29.935Z,99.90
2023-03-17T05:10:59.660Z,99.90
2023-03-17T05:13:26.605Z,99.90
2023-03-17T05:15:55.155Z,99.90
2023-03-17T05:18:23.990Z,99.90
2023-03-17T05:20:51.011Z,99.90
2023-03-17T05:23:17.677Z,99.90
2023-03-17T05:25:46.761Z,99.80
2023-03-17T05:28:14.020Z,99.80
2023-03-17T05:30:42.662Z,99.80
2023-03-17T05:33:11.814Z,99.90
2023-03-17T05:35:39.002Z,99.90
2023-03-17T05:38:05.659Z,99.90
2023-03-17T05:40:38.030Z,99.90
2023-03-17T05:43:06.033Z,99.90
2023-03-17T05:45:33.278Z,99.90
2023-03-17T05:48:00.244Z,99.90
2023-03-17T05:50:29.569Z,99.80
2023-03-17T05:52:58.780Z,99.70
2023-03-17T05:55:27.751Z,99.90
2023-03-17T05:57:56.858Z,99.50
2023-03-17T06:00:26.922Z,99.50
2023-03-17T06:02:55.963Z,99.60
2023-03-17T06:05:22.681Z,99.50
2023-03-17T06:07:54.872Z,99.40
2023-03-17T06:10:24.126Z,99.30
2023-03-17T06:12:51.331Z,99.30
2023-03-17T06:15:22.965Z,99.50
2023-03-17T06:17:51.794Z,99.50
2023-03-17T06:20:19.147Z,99.50
2023-03-17T06:23:02.264Z,99.60
2023-03-17T06:25:29.560Z,99.50
2023-03-17T06:27:57.615Z,99.50
2023-03-17T06:30:24.462Z,99.40
2023-03-17T06:32:53.659Z,99.40
2023-03-17T06:35:20.428Z,99.30
2023-03-17T06:37:47.831Z,99.20
2023-03-17T06:40:16.161Z,99.20
2023-03-17T06:42:42.945Z,99.30
2023-03-17T06:45:12.264Z,99.10
2023-03-17T06:47:41.054Z,98.90
2023-03-17T06:50:12.222Z,98.90
2023-03-17T06:52:40.033Z,99.00
2023-03-17T06:55:08.526Z,99.20
2023-03-17T06:57:38.100Z,98.90
2023-03-17T07:00:08.467Z,98.80
2023-03-17T07:02:37.676Z,98.50
2023-03-17T07:05:04.674Z,98.40
2023-03-17T07:07:35.638Z,98.20
2023-03-17T07:10:04.242Z,98.30
2023-03-17T07:12:33.181Z,98.00
2023-03-17T07:15:00.063Z,98.10
2023-03-17T07:17:30.100Z,98.00
2023-03-17T07:19:56.718Z,97.80
2023-03-17T07:22:28.140Z,97.90
2023-03-17T07:24:57.110Z,97.90
2023-03-17T07:27:26.983Z,97.70
2023-03-17T07:29:56.698Z,97.70
2023-03-17T07:32:24.638Z,97.70
2023-03-17T07:34:51.295Z,97.50
2023-03-17T07:37:21.335Z,97.40
2023-03-17T07:39:48.211Z,97.20
2023-03-17T07:42:17.009Z,97.00
2023-03-17T07:44:44.460Z,97.00
2023-03-17T07:47:11.895Z,97.00
2023-03-17T07:49:42.096Z,96.60
2023-03-17T07:52:12.569Z,96.70
2023-03-17T07:54:44.640Z,96.70
2023-03-17T07:57:11.956Z,96.70
2023-03-17T07:59:41.575Z,96.60
2023-03-17T08:02:17.005Z,96.30
2023-03-17T08:04:44.566Z,96.40
2023-03-17T08:07:14.598Z,96.50
2023-03-17T08:09:41.743Z,96.20
2023-03-17T08:12:09.334Z,96.10
2023-03-17T08:14:36.056Z,96.10
2023-03-17T08:17:07.689Z,96.10
2023-03-17T08:19:39.089Z,96.30
2023-03-17T08:22:05.786Z,96.20
2023-03-17T08:24:35.300Z,96.00
2023-03-17T08:27:07.695Z,96.30
2023-03-17T08:29:34.794Z,96.00
2023-03-17T08:32:01.736Z,96.20
2023-03-17T08:34:30.876Z,96.00
2023-03-17T08:36:57.928Z,95.70
2023-03-17T08:39:24.573Z,95.70
2023-03-17T08:41:51.245Z,95.80
2023-03-17T08:44:19.607Z,96.10
2023-03-17T08:46:47.125Z,95.90
2023-03-17T08:49:16.357Z,95.50
2023-03-17T08:51:44.610Z,95.40
2023-03-17T08:54:15.170Z,95.80
2023-03-17T08:56:42.522Z,95.30
2023-03-17T08:59:11.396Z,95.70
2023-03-17T09:01:44.895Z,95.40
2023-03-17T09:04:14.856Z,95.40
2023-03-17T09:07:01.214Z,95.30
2023-03-17T09:09:34.558Z,95.20
2023-03-17T09:12:07.266Z,95.30
2023-03-17T09:14:43.373Z,95.60
2023-03-17T09:17:13.734Z,95.30
2023-03-17T09:19:40.498Z,95.20
2023-03-17T09:22:07.748Z,95.10
2023-03-17T09:24:36.787Z,95.20
2023-03-17T09:27:03.480Z,95.20
2023-03-17T09:29:33.663Z,95.10
2023-03-17T09:32:02.814Z,95.20
2023-03-17T09:34:31.845Z,94.80
2023-03-17T09:37:01.256Z,95.10
2023-03-17T09:39:27.917Z,94.90
2023-03-17T09:42:10.008Z,94.50
2023-03-17T09:45:21.577Z,94.70
2023-03-17T09:48:04.780Z,94.20
2023-03-17T09:50:42.749Z,93.80
2023-03-17T09:53:23.151Z,93.90
2023-03-17T09:55:54.776Z,93.90
2023-03-17T09:58:32.757Z,93.90
2023-03-17T10:01:03.100Z,94.00
2023-03-17T10:03:29.772Z,93.50
2023-03-17T10:06:16.471Z,93.20
2023-03-17T10:08:56.462Z,92.90
2023-03-17T10:11:40.978Z,92.80
2023-03-17T10:14:28.745Z,92.60
2023-03-17T10:17:03.410Z,92.50
2023-03-17T10:19:40.466Z,92.40
2023-03-17T10:22:21.809Z,92.50
2023-03-17T10:24:55.998Z,92.50
2023-03-17T10:27:26.159Z,92.50
2023-03-17T10:29:57.011Z,92.10
2023-03-17T10:32:27.360Z,92.60
2023-03-17T10:34:57.200Z,92.30
2023-03-17T10:37:24.748Z,92.70
2023-03-17T10:39:54.545Z,92.50
2023-03-17T10:42:35.580Z,92.20
2023-03-17T10:45:14.556Z,91.90
2023-03-17T10:47:45.835Z,92.00
2023-03-17T10:50:18.079Z,92.10
2023-03-17T10:52:47.457Z,92.10
2023-03-17T10:55:21.303Z,91.70
2023-03-17T10:57:54.486Z,91.70
2023-03-17T11:00:24.793Z,91.90
2023-03-17T11:02:59.296Z,91.50
2023-03-17T11:05:29.024Z,91.30
2023-03-17T11:08:14.945Z,90.90
2023-03-17T11:10:41.787Z,90.60
2023-03-17T11:13:08.744Z,90.60
2023-03-17T11:15:47.105Z,90.90
2023-03-17T11:18:24.211Z,90.20
2023-03-17T11:21:11.437Z,90.60
2023-03-17T11:23:47.016Z,90.90
2023-03-17T11:26:32.429Z,90.70
2023-03-17T11:29:29.523Z,90.70
2023-03-17T11:31:56.154Z,90.90
2023-03-17T11:34:37.813Z,90.30
2023-03-17T11:37:47.407Z,90.30
2023-03-17T11:40:31.779Z,89.90
2023-03-17T11:43:22.149Z,90.10
2023-03-17T11:46:03.253Z,89.20
2023-03-17T11:48:34.617Z,88.70
2023-03-17T11:51:24.601Z,88.80
2023-03-17T11:53:54.551Z,89.10
2023-03-17T11:56:29.016Z,87.00
2023-03-17T11:59:01.667Z,87.70
2023-03-17T12:01:48.675Z,87.80
2023-03-17T12:05:07.717Z,86.30
2023-03-17T12:07:53.222Z,87.20
2023-03-17T12:10:24.152Z,87.80
2023-03-17T12:13:02.403Z,89.10
2023-03-17T12:15:36.208Z,87.40
2023-03-17T12:18:13.219Z,87.60
2023-03-17T12:20:46.649Z,86.30
2023-03-17T12:23:33.260Z,86.40
2023-03-17T12:26:08.938Z,86.40
2023-03-17T12:28:50.187Z,86.30
2023-03-17T12:31:26.984Z,86.60
2023-03-17T12:34:25.066Z,85.90
2023-03-17T12:36:52.817Z,86.30
2023-03-17T12:39:29.099Z,86.20
2023-03-17T12:42:05.704Z,86.40
2023-03-17T12:44:53.512Z,84.70
2023-03-17T12:47:37.779Z,84.40
2023-03-17T12:50:44.762Z,84.20
2023-03-17T12:53:14.380Z,83.50
2023-03-17T12:55:50.031Z,83.80
2023-03-17T12:58:41.895Z,84.10
2023-03-17T13:01:53.297Z,83.30
2023-03-17T13:04:37.293Z,82.50
2023-03-17T13:07:19.557Z,82.40
2023-03-17T13:10:18.792Z,83.10
2023-03-17T13:12:50.319Z,82.30
2023-03-17T13:15:23.435Z,81.60
2023-03-17T13:18:10.393Z,82.90
2023-03-17T13:20:43.573Z,82.40
2023-03-17T13:23:10.303Z,81.60
2023-03-17T13:25:41.237Z,80.80
2023-03-17T13:28:13.768Z,81.20
2023-03-17T13:30:40.427Z,81.20
2023-03-17T13:33:10.174Z,80.30
2023-03-17T13:35:42.820Z,80.20
2023-03-17T13:38:27.504Z,79.60
2023-03-17T13:41:06.256Z,80.20
2023-03-17T13:43:55.926Z,79.20
2023-03-17T13:46:27.606Z,79.00
2023-03-17T13:49:00.228Z,79.70
2023-03-17T13:51:33.751Z,80.10
2023-03-17T13:54:26.763Z,80.60
2023-03-17T13:56:56.227Z,81.60
2023-03-17T13:59:55.525Z,81.10
2023-03-17T14:02:31.672Z,81.30
2023-03-17T14:05:02.805Z,81.70
2023-03-17T14:07:44.238Z,81.90
2023-03-17T14:10:22.055Z,81.90
2023-03-17T14:12:57.717Z,82.20
2023-03-17T14:15:49.410Z,82.00
2023-03-17T14:18:22.979Z,82.30
2023-03-17T14:20:57.414Z,82.70
2023-03-17T14:23:29.894Z,83.20
2023-03-17T14:26:00.818Z,82.60
2023-03-17T14:28:32.209Z,82.90
2023-03-17T14:31:04.862Z,83.50
2023-03-17T14:33:41.786Z,83.50
2023-03-17T14:36:15.481Z,84.00
2023-03-17T14:38:51.572Z,84.70
2023-03-17T14:41:23.543Z,85.00
2023-03-17T14:43:52.265Z,85.20
2023-03-17T14:46:37.121Z,85.60
2023-03-17T14:49:26.538Z,86.10
2023-03-17T14:51:58.438Z,86.60
2023-03-17T14:54:33.826Z,87.00
2023-03-17T14:57:09.960Z,87.10
2023-03-17T14:59:40.119Z,87.40
2023-03-17T15:02:39.984Z,88.20
2023-03-17T15:05:20.536Z,89.00
2023-03-17T15:07:49.594Z,89.80
2023-03-17T15:10:19.273Z,90.10
2023-03-17T15:12:47.391Z,90.20
2023-03-17T15:15:22.802Z,90.70
2023-03-17T15:17:56.076Z,90.20
2023-03-17T15:20:25.526Z,90.20
2023-03-17T15:23:05.608Z,90.20
2023-03-17T15:25:42.921Z,90.60
2023-03-17T15:28:17.111Z,91.10
2023-03-17T15:30:50.121Z,91.10
2023-03-17T15:33:20.409Z,91.40
2023-03-17T15:35:47.742Z,91.10
2023-03-17T15:38:14.508Z,91.00
2023-03-17T15:40:43.800Z,91.10
2023-03-17T15:43:18.628Z,90.80
2023-03-17T15:45:46.410Z,90.80
2023-03-17T15:48:20.698Z,91.00
2023-03-17T15:50:49.042Z,90.40
2023-03-17T15:53:15.915Z,90.30
2023-03-17T15:55:42.592Z,90.40
2023-03-17T15:58:09.243Z,90.60
2023-03-17T16:00:38.883Z,90.50
2023-03-17T16:03:24.264Z,90.60
2023-03-17T16:05:53.392Z,90.70
2023-03-17T16:08:22.672Z,90.80
2023-03-17T16:10:49.316Z,90.70
2023-03-17T16:13:18.744Z,90.90
2023-03-17T16:15:59.804Z,90.70
2023-03-17T16:18:35.044Z,90.80
2023-03-17T16:21:03.871Z,90.70
2023-03-17T16:23:37.428Z,91.00
2023-03-17T16:26:16.504Z,90.90
2023-03-17T16:28:45.476Z,90.90
2023-03-17T16:31:25.687Z,90.70
2023-03-17T16:33:54.954Z,90.90
2023-03-17T16:36:22.931Z,91.20
2023-03-17T16:38:50.108Z,91.70
2023-03-17T16:41:28.269Z,91.70
2023-03-17T16:44:05.332Z,91.90
2023-03-17T16:46:37.854Z,91.00
2023-03-17T16:49:05.423Z,91.00
2023-03-17T16:51:32.476Z,91.20
2023-03-17T16:54:01.576Z,91.60
2023-03-17T16:56:31.502Z,92.60
2023-03-17T16:58:58.218Z,92.90
2023-03-17T17:01:27.204Z,92.90
2023-03-17T17:03:54.269Z,93.50
2023-03-17T17:06:22.646Z,93.70
2023-03-17T17:08:52.816Z,94.10
2023-03-17T17:11:20.237Z,94.70
2023-03-17T17:13:51.709Z,95.40
2023-03-17T17:16:35.285Z,96.20
2023-03-17T17:19:09.520Z,97.80
2023-03-17T17:21:36.208Z,97.50
2023-03-17T17:24:05.439Z,98.00
2023-03-17T17:26:32.128Z,97.40
2023-03-17T17:28:58.785Z,97.60
2023-03-17T17:31:30.151Z,96.90
2023-03-17T17:33:56.827Z,97.40
2023-03-17T17:36:25.304Z,98.10
2023-03-17T17:38:54.441Z,98.40
2023-03-17T17:41:23.523Z,98.40
2023-03-17T17:43:50.379Z,98.20
2023-03-17T17:46:19.878Z,98.10
2023-03-17T17:48:47.270Z,98.00
2023-03-17T17:51:14.671Z,98.30
2023-03-17T17:53:41.548Z,98.30
2023-03-17T17:56:14.088Z,98.00
2023-03-17T17:58:40.797Z,98.00
2023-03-17T18:01:11.710Z,97.50
2023-03-17T18:03:41.567Z,97.70
2023-03-17T18:06:13.540Z,97.40
2023-03-17T18:08:44.941Z,97.20
2023-03-17T18:11:14.264Z,96.90
2023-03-17T18:13:40.995Z,97.30
2023-03-17T18:16:10.738Z,97.10
2023-03-17T18:18:40.580Z,96.80
2023-03-17T18:21:09.724Z,97.10
2023-03-17T18:23:36.637Z,97.30
2023-03-17T18:26:09.337Z,97.30
2023-03-17T18:28:35.991Z,97.90
2023-03-17T18:31:12.942Z,97.50
2023-03-17T18:33:41.622Z,97.90
2023-03-17T18:36:08.928Z,97.70
2023-03-17T18:38:36.036Z,97.50
2023-03-17T18:41:07.528Z,97.90
2023-03-17T18:43:36.480Z,97.80
2023-03-17T18:46:03.371Z,97.80
2023-03-17T18:48:36.097Z,98.00
2023-03-17T18:51:02.993Z,97.80
2023-03-17T18:53:30.796Z,98.20
2023-03-17T18:55:59.249Z,98.20
2023-03-17T18:58:28.909Z,98.20
2023-03-17T19:01:03.033Z,98.10
2023-03-17T19:03:34.500Z,98.20
2023-03-17T19:06:12.250Z,98.20
2023-03-17T19:08:39.119Z,97.90
2023-03-17T19:11:07.670Z,97.80
2023-03-17T19:13:35.828Z,97.30
2023-03-17T19:16:03.396Z,97.40
2023-03-17T19:18:32.856Z,97.00
2023-03-17T19:20:59.527Z,97.00
2023-03-17T19:23:26.405Z,96.80
2023-03-17T19:25:53.576Z,96.60
2023-03-17T19:28:22.744Z,96.60
2023-03-17T19:30:49.423Z,96.50
2023-03-17T19:33:16.742Z,96.60
2023-03-17T19:35:44.315Z,96.50
2023-03-17T19:38:11.753Z,96.50
2023-03-17T19:40:39.095Z,96.50
2023-03-17T19:43:06.229Z,96.60
2023-03-17T19:45:36.187Z,96.50
2023-03-17T19:48:02.852Z,96.70
2023-03-17T19:50:31.637Z,96.80
2023-03-17T19:52:58.499Z,96.60
2023-03-17T19:55:27.372Z,96.70
2023-03-17T19:57:54.060Z,96.70
2023-03-17T20:00:25.635Z,97.20
2023-03-17T20:02:52.527Z,96.80
2023-03-17T20:05:19.237Z,96.90
2023-03-17T20:07:46.496Z,97.10
2023-03-17T20:10:15.925Z,97.50
2023-03-17T20:12:43.350Z,98.30
2023-03-17T20:15:12.453Z,99.30
2023-03-17T20:17:44.353Z,99.30
2023-03-17T20:20:11.632Z,99.90
2023-03-17T20:22:41.355Z,99.90
2023-03-17T20:25:10.207Z,99.90
2023-03-17T20:27:37.021Z,99.90
2023-03-17T20:30:12.095Z,99.90
2023-03-17T20:32:41.013Z,99.90
2023-03-17T20:35:08.932Z,99.90
2023-03-17T20:37:39.450Z,99.90
2023-03-17T20:40:10.599Z,99.90
2023-03-17T20:42:37.410Z,99.90
2023-03-17T20:45:07.399Z,99.90
2023-03-17T20:47:36.571Z,99.90
2023-03-17T20:50:08.814Z,99.90
2023-03-17T20:52:38.502Z,99.90
2023-03-17T20:55:09.216Z,99.90
2023-03-17T20:57:38.672Z,99.90
2023-03-17T21:00:05.989Z,99.90
2023-03-17T21:02:32.727Z,99.90
2023-03-17T21:04:59.392Z,99.90
2023-03-17T21:07:26.323Z,99.90
2023-03-17T21:09:56.417Z,99.90
2023-03-17T21:12:23.596Z,99.90
2023-03-17T21:14:50.625Z,99.90
2023-03-17T21:17:18.074Z,99.90
2023-03-17T21:19:45.511Z,99.90
2023-03-17T21:22:15.826Z,99.90
2023-03-17T21:24:44.987Z,99.90
2023-03-17T21:27:12.917Z,99.90
2023-03-17T21:29:41.858Z,99.90
2023-03-17T21:32:08.633Z,99.90
2023-03-17T21:34:38.198Z,99.90
2023-03-17T21:37:07.756Z,99.90
2023-03-17T21:39:36.190Z,99.90
2023-03-17T21:42:09.623Z,99.90
2023-03-17T21:44:36.322Z,99.90
2023-03-17T21:47:05.309Z,99.90
2023-03-17T21:49:32.090Z,99.90
2023-03-17T21:52:03.171Z,99.90
2023-03-17T21:54:30.716Z,99.90
2023-03-17T21:56:58.217Z,99.90
2023-03-17T21:59:30.760Z,99.90
2023-03-17T22:01:57.817Z,99.90
2023-03-17T22:04:25.901Z,99.90
2023-03-17T22:06:53.851Z,99.90
2023-03-17T22:09:23.128Z,99.90
2023-03-17T22:11:54.986Z,99.90
2023-03-17T22:14:24.243Z,99.90
2023-03-17T22:16:51.080Z,99.90
2023-03-17T22:19:21.319Z,99.90
2023-03-17T22:21:50.407Z,99.90
2023-03-17T22:24:17.372Z,99.90
2023-03-17T22:26:44.281Z,99.90
2023-03-17T22:29:16.202Z,99.90
2023-03-17T22:31:43.052Z,99.90
2023-03-17T22:34:09.968Z,99.90
2023-03-17T22:36:37.295Z,99.90
2023-03-17T22:39:05.157Z,99.90
2023-03-17T22:41:31.951Z,99.90
2023-03-17T22:43:59.689Z,99.90
2023-03-17T22:46:27.187Z,99.90
2023-03-17T22:49:00.935Z,99.90
2023-03-17T22:51:29.981Z,99.90
2023-03-17T22:53:57.365Z,99.90
2023-03-17T22:56:25.086Z,99.90
2023-03-17T22:58:52.541Z,99.90
2023-03-17T23:01:23.462Z,99.90
2023-03-17T23:03:56.254Z,99.90
2023-03-17T23:06:23.013Z,99.90
2023-03-17T23:08:50.132Z,99.90
2023-03-17T23:11:21.111Z,99.90
2023-03-17T23:13:48.823Z,99.90
2023-03-17T23:16:16.364Z,99.90
2023-03-17T23:18:49.441Z,99.90
2023-03-17T23:21:28.810Z,99.90
2023-03-17T23:23:55.942Z,99.90
2023-03-17T23:26:22.756Z,99.90
2023-03-17T23:28:54.132Z,99.90
2023-03-17T23:31:22.303Z,99.90
2023-03-17T23:33:52.709Z,99.90
2023-03-17T23:36:22.382Z,99.90
2023-03-17T23:38:52.246Z,99.90
2023-03-17T23:41:19.503Z,99.90
2023-03-17T23:43:46.850Z,99.90
2023-03-17T23:46:14.563Z,99.90
2023-03-17T23:48:42.879Z,99.90
2023-03-17T23:51:12.008Z,99.90
2023-03-17T23:53:41.950Z,99.90
2023-03-17T23:56:12.976Z,99.90
2023-03-17T23:58:42.363Z,99.90
